sensor_id;sensor_type;location;lat;lon;timestamp;P1;durP1;ratioP1;P2;durP2;ratioP2
55409;SDS011;41279;43.546;16.426;2022-12-31T00:01:08;6.93;;;4.55;;
55409;SDS011;41279;43.546;16.426;2022-12-31T00:03:35;9.63;;;4.85;;
55409;SDS011;41279;43.546;16.426;2022-12-31T00:06:10;8.65;;;4.30;;
55409;SDS011;41279;43.546;16.426;2022-12-31T00:08:39;7.53;;;4.63;;
55409;SDS011;41279;43.546;16.426;2022-12-31T00:11:04;11.10;;;4.90;;
55409;SDS011;41279;43.546;16.426;2022-12-31T00:13:30;7.80;;;4.32;;
55409;SDS011;41279;43.546;16.426;2022-12-31T00:16:04;7.78;;;4.75;;
55409;SDS011;41279;43.546;16.426;2022-12-31T00:18:30;7.95;;;4.32;;
55409;SDS011;41279;43.546;16.426;2022-12-31T00:20:55;8.60;;;4.55;;
55409;SDS011;41279;43.546;16.426;2022-12-31T00:23:21;8.90;;;4.90;;
55409;SDS011;41279;43.546;16.426;2022-12-31T00:25:46;11.63;;;5.85;;
55409;SDS011;41279;43.546;16.426;2022-12-31T00:28:11;14.10;;;6.22;;
55409;SDS011;41279;43.546;16.426;2022-12-31T00:30:36;9.98;;;5.40;;
55409;SDS011;41279;43.546;16.426;2022-12-31T00:33:02;8.85;;;5.28;;
55409;SDS011;41279;43.546;16.426;2022-12-31T00:35:27;12.60;;;6.05;;
55409;SDS011;41279;43.546;16.426;2022-12-31T00:37:52;12.30;;;6.30;;
55409;SDS011;41279;43.546;16.426;2022-12-31T00:40:18;12.93;;;6.35;;
55409;SDS011;41279;43.546;16.426;2022-12-31T00:42:43;10.70;;;6.18;;
55409;SDS011;41279;43.546;16.426;2022-12-31T00:45:09;13.15;;;6.32;;
55409;SDS011;41279;43.546;16.426;2022-12-31T00:47:40;10.07;;;6.10;;
55409;SDS011;41279;43.546;16.426;2022-12-31T00:50:06;13.60;;;5.57;;
55409;SDS011;41279;43.546;16.426;2022-12-31T00:52:31;12.10;;;6.03;;
55409;SDS011;41279;43.546;16.426;2022-12-31T00:54:57;11.10;;;5.80;;
55409;SDS011;41279;43.546;16.426;2022-12-31T00:57:22;9.68;;;6.00;;
55409;SDS011;41279;43.546;16.426;2022-12-31T00:59:47;12.27;;;6.45;;
55409;SDS011;41279;43.546;16.426;2022-12-31T01:02:13;10.68;;;6.20;;
55409;SDS011;41279;43.546;16.426;2022-12-31T01:04:38;12.93;;;6.28;;
55409;SDS011;41279;43.546;16.426;2022-12-31T01:07:03;13.73;;;6.60;;
55409;SDS011;41279;43.546;16.426;2022-12-31T01:09:29;10.32;;;6.13;;
55409;SDS011;41279;43.546;16.426;2022-12-31T01:11:54;12.00;;;6.70;;
55409;SDS011;41279;43.546;16.426;2022-12-31T01:14:19;9.23;;;5.75;;
55409;SDS011;41279;43.546;16.426;2022-12-31T01:16:46;10.43;;;5.40;;
55409;SDS011;41279;43.546;16.426;2022-12-31T01:19:20;11.70;;;5.70;;
55409;SDS011;41279;43.546;16.426;2022-12-31T01:21:48;11.75;;;7.53;;
55409;SDS011;41279;43.546;16.426;2022-12-31T01:24:14;19.95;;;5.70;;
55409;SDS011;41279;43.546;16.426;2022-12-31T01:26:41;14.65;;;5.80;;
55409;SDS011;41279;43.546;16.426;2022-12-31T01:29:07;11.48;;;5.80;;
55409;SDS011;41279;43.546;16.426;2022-12-31T01:31:33;12.93;;;5.40;;
55409;SDS011;41279;43.546;16.426;2022-12-31T01:33:59;14.00;;;6.15;;
55409;SDS011;41279;43.546;16.426;2022-12-31T01:36:26;9.40;;;4.80;;
55409;SDS011;41279;43.546;16.426;2022-12-31T01:38:54;9.85;;;5.55;;
55409;SDS011;41279;43.546;16.426;2022-12-31T01:41:22;13.10;;;7.43;;
55409;SDS011;41279;43.546;16.426;2022-12-31T01:51:44;12.90;;;6.05;;
55409;SDS011;41279;43.546;16.426;2022-12-31T01:54:14;9.15;;;5.95;;
55409;SDS011;41279;43.546;16.426;2022-12-31T01:56:43;12.07;;;5.75;;
55409;SDS011;41279;43.546;16.426;2022-12-31T01:59:11;11.57;;;5.60;;
55409;SDS011;41279;43.546;16.426;2022-12-31T02:01:40;10.48;;;5.60;;
55409;SDS011;41279;43.546;16.426;2022-12-31T02:04:07;11.52;;;5.88;;
55409;SDS011;41279;43.546;16.426;2022-12-31T02:09:12;11.98;;;5.93;;
55409;SDS011;41279;43.546;16.426;2022-12-31T02:11:38;10.43;;;5.32;;
55409;SDS011;41279;43.546;16.426;2022-12-31T02:19:19;12.98;;;5.75;;
55409;SDS011;41279;43.546;16.426;2022-12-31T02:21:56;8.80;;;5.07;;
55409;SDS011;41279;43.546;16.426;2022-12-31T02:24:47;12.35;;;6.30;;
55409;SDS011;41279;43.546;16.426;2022-12-31T02:30:04;10.80;;;5.22;;
55409;SDS011;41279;43.546;16.426;2022-12-31T02:38:24;19.15;;;6.50;;
55409;SDS011;41279;43.546;16.426;2022-12-31T02:40:55;13.85;;;5.95;;
55409;SDS011;41279;43.546;16.426;2022-12-31T02:43:20;11.35;;;5.50;;
55409;SDS011;41279;43.546;16.426;2022-12-31T02:45:47;14.60;;;5.90;;
55409;SDS011;41279;43.546;16.426;2022-12-31T02:53:44;15.90;;;6.05;;
55409;SDS011;41279;43.546;16.426;2022-12-31T02:56:26;19.33;;;6.07;;
55409;SDS011;41279;43.546;16.426;2022-12-31T02:59:01;10.38;;;6.25;;
55409;SDS011;41279;43.546;16.426;2022-12-31T03:01:52;10.82;;;5.82;;
55409;SDS011;41279;43.546;16.426;2022-12-31T03:04:41;8.32;;;5.25;;
55409;SDS011;41279;43.546;16.426;2022-12-31T03:07:11;9.68;;;5.10;;
55409;SDS011;41279;43.546;16.426;2022-12-31T03:09:41;11.55;;;5.68;;
55409;SDS011;41279;43.546;16.426;2022-12-31T03:12:07;8.80;;;4.85;;
55409;SDS011;41279;43.546;16.426;2022-12-31T03:14:53;14.00;;;5.43;;
55409;SDS011;41279;43.546;16.426;2022-12-31T03:17:19;8.30;;;4.82;;
55409;SDS011;41279;43.546;16.426;2022-12-31T03:19:44;7.95;;;5.03;;
55409;SDS011;41279;43.546;16.426;2022-12-31T03:22:29;9.60;;;5.40;;
55409;SDS011;41279;43.546;16.426;2022-12-31T03:24:55;11.38;;;5.55;;
55409;SDS011;41279;43.546;16.426;2022-12-31T03:27:43;7.07;;;5.00;;
55409;SDS011;41279;43.546;16.426;2022-12-31T03:30:10;9.18;;;5.10;;
55409;SDS011;41279;43.546;16.426;2022-12-31T03:32:36;8.73;;;5.72;;
55409;SDS011;41279;43.546;16.426;2022-12-31T03:35:01;8.93;;;5.00;;
55409;SDS011;41279;43.546;16.426;2022-12-31T03:37:28;8.68;;;5.38;;
55409;SDS011;41279;43.546;16.426;2022-12-31T03:39:53;10.90;;;5.18;;
55409;SDS011;41279;43.546;16.426;2022-12-31T03:42:18;7.30;;;4.50;;
55409;SDS011;41279;43.546;16.426;2022-12-31T03:44:44;8.35;;;4.93;;
55409;SDS011;41279;43.546;16.426;2022-12-31T03:47:09;11.25;;;5.35;;
55409;SDS011;41279;43.546;16.426;2022-12-31T03:49:34;11.13;;;5.05;;
55409;SDS011;41279;43.546;16.426;2022-12-31T03:52:00;8.63;;;4.78;;
55409;SDS011;41279;43.546;16.426;2022-12-31T03:54:27;10.20;;;5.10;;
55409;SDS011;41279;43.546;16.426;2022-12-31T03:56:52;8.77;;;5.05;;
55409;SDS011;41279;43.546;16.426;2022-12-31T03:59:18;11.32;;;5.47;;
55409;SDS011;41279;43.546;16.426;2022-12-31T04:01:43;12.05;;;6.47;;
55409;SDS011;41279;43.546;16.426;2022-12-31T04:04:08;9.40;;;5.18;;
55409;SDS011;41279;43.546;16.426;2022-12-31T04:06:34;7.70;;;5.20;;
55409;SDS011;41279;43.546;16.426;2022-12-31T04:08:59;7.53;;;4.65;;
55409;SDS011;41279;43.546;16.426;2022-12-31T04:11:24;8.70;;;4.68;;
55409;SDS011;41279;43.546;16.426;2022-12-31T04:13:50;11.38;;;5.65;;
55409;SDS011;41279;43.546;16.426;2022-12-31T04:16:15;11.60;;;6.75;;
55409;SDS011;41279;43.546;16.426;2022-12-31T04:18:40;9.70;;;5.85;;
55409;SDS011;41279;43.546;16.426;2022-12-31T04:21:06;7.93;;;4.95;;
55409;SDS011;41279;43.546;16.426;2022-12-31T04:23:31;9.93;;;4.30;;
55409;SDS011;41279;43.546;16.426;2022-12-31T04:25:56;7.70;;;4.57;;
55409;SDS011;41279;43.546;16.426;2022-12-31T04:28:22;7.85;;;4.75;;
55409;SDS011;41279;43.546;16.426;2022-12-31T04:30:47;9.52;;;5.63;;
55409;SDS011;41279;43.546;16.426;2022-12-31T04:33:12;8.25;;;5.47;;
55409;SDS011;41279;43.546;16.426;2022-12-31T04:35:38;13.40;;;7.10;;
55409;SDS011;41279;43.546;16.426;2022-12-31T04:38:03;16.65;;;9.35;;
55409;SDS011;41279;43.546;16.426;2022-12-31T04:40:28;15.45;;;8.55;;
55409;SDS011;41279;43.546;16.426;2022-12-31T04:42:54;13.95;;;8.90;;
55409;SDS011;41279;43.546;16.426;2022-12-31T04:45:19;11.48;;;8.27;;
55409;SDS011;41279;43.546;16.426;2022-12-31T04:47:44;10.43;;;7.32;;
55409;SDS011;41279;43.546;16.426;2022-12-31T04:50:10;13.88;;;8.52;;
55409;SDS011;41279;43.546;16.426;2022-12-31T04:52:35;10.20;;;7.18;;
55409;SDS011;41279;43.546;16.426;2022-12-31T04:55:00;12.43;;;7.90;;
55409;SDS011;41279;43.546;16.426;2022-12-31T04:57:26;13.43;;;8.20;;
55409;SDS011;41279;43.546;16.426;2022-12-31T04:59:51;15.88;;;7.10;;
55409;SDS011;41279;43.546;16.426;2022-12-31T05:02:16;13.73;;;6.68;;
55409;SDS011;41279;43.546;16.426;2022-12-31T05:04:42;12.13;;;7.97;;
55409;SDS011;41279;43.546;16.426;2022-12-31T05:07:07;10.40;;;5.85;;
55409;SDS011;41279;43.546;16.426;2022-12-31T05:09:33;10.65;;;5.78;;
55409;SDS011;41279;43.546;16.426;2022-12-31T05:11:58;14.88;;;7.57;;
55409;SDS011;41279;43.546;16.426;2022-12-31T05:14:24;9.95;;;5.75;;
55409;SDS011;41279;43.546;16.426;2022-12-31T05:16:49;11.35;;;6.40;;
55409;SDS011;41279;43.546;16.426;2022-12-31T05:19:15;10.15;;;5.90;;
55409;SDS011;41279;43.546;16.426;2022-12-31T05:21:40;8.38;;;5.20;;
55409;SDS011;41279;43.546;16.426;2022-12-31T05:24:06;11.15;;;6.20;;
55409;SDS011;41279;43.546;16.426;2022-12-31T05:26:31;11.05;;;6.97;;
55409;SDS011;41279;43.546;16.426;2022-12-31T05:28:57;10.88;;;7.00;;
55409;SDS011;41279;43.546;16.426;2022-12-31T05:31:24;13.05;;;6.65;;
55409;SDS011;41279;43.546;16.426;2022-12-31T05:33:49;12.82;;;6.88;;
55409;SDS011;41279;43.546;16.426;2022-12-31T05:36:15;13.05;;;8.05;;
55409;SDS011;41279;43.546;16.426;2022-12-31T05:38:40;14.98;;;7.65;;
55409;SDS011;41279;43.546;16.426;2022-12-31T05:41:06;12.85;;;6.68;;
55409;SDS011;41279;43.546;16.426;2022-12-31T05:43:32;9.07;;;6.05;;
55409;SDS011;41279;43.546;16.426;2022-12-31T05:46:01;9.70;;;6.13;;
55409;SDS011;41279;43.546;16.426;2022-12-31T05:48:28;13.02;;;6.68;;
55409;SDS011;41279;43.546;16.426;2022-12-31T05:50:53;11.20;;;6.05;;
55409;SDS011;41279;43.546;16.426;2022-12-31T05:53:25;11.13;;;5.68;;
55409;SDS011;41279;43.546;16.426;2022-12-31T05:55:51;12.70;;;5.65;;
55409;SDS011;41279;43.546;16.426;2022-12-31T05:58:16;10.10;;;6.05;;
55409;SDS011;41279;43.546;16.426;2022-12-31T06:00:42;10.23;;;5.20;;
55409;SDS011;41279;43.546;16.426;2022-12-31T06:03:07;9.73;;;6.90;;
55409;SDS011;41279;43.546;16.426;2022-12-31T06:05:33;10.88;;;7.00;;
55409;SDS011;41279;43.546;16.426;2022-12-31T06:07:58;10.98;;;6.50;;
55409;SDS011;41279;43.546;16.426;2022-12-31T06:10:23;15.82;;;11.02;;
55409;SDS011;41279;43.546;16.426;2022-12-31T06:12:49;11.80;;;7.60;;
55409;SDS011;41279;43.546;16.426;2022-12-31T06:15:14;9.45;;;5.32;;
55409;SDS011;41279;43.546;16.426;2022-12-31T06:17:40;11.95;;;5.90;;
55409;SDS011;41279;43.546;16.426;2022-12-31T06:20:05;9.90;;;5.10;;
55409;SDS011;41279;43.546;16.426;2022-12-31T06:22:31;9.40;;;5.53;;
55409;SDS011;41279;43.546;16.426;2022-12-31T06:24:56;10.65;;;5.70;;
55409;SDS011;41279;43.546;16.426;2022-12-31T06:27:22;10.10;;;5.40;;
55409;SDS011;41279;43.546;16.426;2022-12-31T06:29:53;12.15;;;6.45;;
55409;SDS011;41279;43.546;16.426;2022-12-31T06:32:19;11.10;;;5.78;;
55409;SDS011;41279;43.546;16.426;2022-12-31T06:34:44;12.38;;;7.15;;
55409;SDS011;41279;43.546;16.426;2022-12-31T06:37:09;11.55;;;6.07;;
55409;SDS011;41279;43.546;16.426;2022-12-31T06:39:34;9.63;;;5.85;;
55409;SDS011;41279;43.546;16.426;2022-12-31T06:42:00;13.98;;;6.13;;
55409;SDS011;41279;43.546;16.426;2022-12-31T06:44:25;11.45;;;6.10;;
55409;SDS011;41279;43.546;16.426;2022-12-31T06:46:51;12.95;;;6.55;;
55409;SDS011;41279;43.546;16.426;2022-12-31T06:49:16;10.73;;;6.15;;
55409;SDS011;41279;43.546;16.426;2022-12-31T06:51:41;10.85;;;6.05;;
55409;SDS011;41279;43.546;16.426;2022-12-31T06:54:09;11.63;;;6.30;;
55409;SDS011;41279;43.546;16.426;2022-12-31T06:56:35;9.10;;;5.38;;
55409;SDS011;41279;43.546;16.426;2022-12-31T06:59:01;14.85;;;6.55;;
55409;SDS011;41279;43.546;16.426;2022-12-31T07:01:36;10.30;;;5.97;;
55409;SDS011;41279;43.546;16.426;2022-12-31T07:07:07;16.80;;;6.80;;
55409;SDS011;41279;43.546;16.426;2022-12-31T07:15:18;19.33;;;11.32;;
55409;SDS011;41279;43.546;16.426;2022-12-31T07:18:05;15.30;;;7.20;;
55409;SDS011;41279;43.546;16.426;2022-12-31T07:20:42;18.55;;;8.98;;
55409;SDS011;41279;43.546;16.426;2022-12-31T07:23:08;22.90;;;9.13;;
55409;SDS011;41279;43.546;16.426;2022-12-31T07:25:34;16.60;;;9.48;;
55409;SDS011;41279;43.546;16.426;2022-12-31T07:33:45;14.57;;;9.15;;
55409;SDS011;41279;43.546;16.426;2022-12-31T07:39:13;18.83;;;8.70;;
55409;SDS011;41279;43.546;16.426;2022-12-31T07:47:42;14.80;;;8.55;;
55409;SDS011;41279;43.546;16.426;2022-12-31T07:50:12;12.32;;;6.82;;
55409;SDS011;41279;43.546;16.426;2022-12-31T07:52:40;13.07;;;6.97;;
55409;SDS011;41279;43.546;16.426;2022-12-31T07:55:05;14.05;;;7.60;;
55409;SDS011;41279;43.546;16.426;2022-12-31T07:57:33;14.48;;;7.88;;
55409;SDS011;41279;43.546;16.426;2022-12-31T08:00:07;14.65;;;7.80;;
55409;SDS011;41279;43.546;16.426;2022-12-31T08:05:21;13.68;;;8.95;;
55409;SDS011;41279;43.546;16.426;2022-12-31T08:11:01;14.40;;;8.60;;
55409;SDS011;41279;43.546;16.426;2022-12-31T08:13:51;20.70;;;11.18;;
55409;SDS011;41279;43.546;16.426;2022-12-31T08:16:18;22.70;;;10.98;;
55409;SDS011;41279;43.546;16.426;2022-12-31T08:18:44;27.00;;;14.05;;
55409;SDS011;41279;43.546;16.426;2022-12-31T08:32:20;13.85;;;8.00;;
55409;SDS011;41279;43.546;16.426;2022-12-31T08:35:16;14.35;;;8.23;;
55409;SDS011;41279;43.546;16.426;2022-12-31T08:37:58;14.38;;;8.23;;
55409;SDS011;41279;43.546;16.426;2022-12-31T08:40:27;17.67;;;9.70;;
55409;SDS011;41279;43.546;16.426;2022-12-31T08:45:51;18.88;;;10.23;;
55409;SDS011;41279;43.546;16.426;2022-12-31T08:48:29;17.65;;;10.25;;
55409;SDS011;41279;43.546;16.426;2022-12-31T08:51:04;20.38;;;10.43;;
55409;SDS011;41279;43.546;16.426;2022-12-31T08:53:34;16.58;;;10.10;;
55409;SDS011;41279;43.546;16.426;2022-12-31T08:56:09;14.50;;;9.00;;
55409;SDS011;41279;43.546;16.426;2022-12-31T08:59:02;15.68;;;8.18;;
55409;SDS011;41279;43.546;16.426;2022-12-31T09:01:33;14.53;;;9.27;;
55409;SDS011;41279;43.546;16.426;2022-12-31T09:04:11;15.10;;;7.93;;
55409;SDS011;41279;43.546;16.426;2022-12-31T09:06:41;12.20;;;7.07;;
55409;SDS011;41279;43.546;16.426;2022-12-31T09:12:03;15.05;;;8.15;;
55409;SDS011;41279;43.546;16.426;2022-12-31T09:14:49;17.67;;;8.30;;
55409;SDS011;41279;43.546;16.426;2022-12-31T09:20:13;18.95;;;8.52;;
55409;SDS011;41279;43.546;16.426;2022-12-31T09:22:46;17.73;;;8.50;;
55409;SDS011;41279;43.546;16.426;2022-12-31T09:25:12;21.92;;;9.38;;
55409;SDS011;41279;43.546;16.426;2022-12-31T09:27:42;18.40;;;9.10;;
55409;SDS011;41279;43.546;16.426;2022-12-31T09:30:15;17.33;;;8.60;;
55409;SDS011;41279;43.546;16.426;2022-12-31T09:43:50;24.13;;;9.40;;
55409;SDS011;41279;43.546;16.426;2022-12-31T09:52:54;20.42;;;9.82;;
55409;SDS011;41279;43.546;16.426;2022-12-31T09:55:50;19.70;;;9.82;;
55409;SDS011;41279;43.546;16.426;2022-12-31T10:00:52;24.65;;;12.27;;
55409;SDS011;41279;43.546;16.426;2022-12-31T10:03:39;23.25;;;11.85;;
55409;SDS011;41279;43.546;16.426;2022-12-31T10:09:29;20.08;;;11.32;;
55409;SDS011;41279;43.546;16.426;2022-12-31T10:17:35;28.13;;;14.02;;
55409;SDS011;41279;43.546;16.426;2022-12-31T10:20:06;24.13;;;13.20;;
55409;SDS011;41279;43.546;16.426;2022-12-31T10:30:55;23.23;;;12.85;;
55409;SDS011;41279;43.546;16.426;2022-12-31T10:33:44;26.10;;;12.18;;
55409;SDS011;41279;43.546;16.426;2022-12-31T10:36:19;20.27;;;12.18;;
55409;SDS011;41279;43.546;16.426;2022-12-31T10:39:41;25.15;;;13.75;;
55409;SDS011;41279;43.546;16.426;2022-12-31T10:45:25;23.00;;;13.90;;
55409;SDS011;41279;43.546;16.426;2022-12-31T11:04:58;25.77;;;13.77;;
55409;SDS011;41279;43.546;16.426;2022-12-31T11:10:55;26.17;;;13.65;;
55409;SDS011;41279;43.546;16.426;2022-12-31T11:13:29;22.77;;;12.88;;
55409;SDS011;41279;43.546;16.426;2022-12-31T11:45:52;14.15;;;7.95;;
55409;SDS011;41279;43.546;16.426;2022-12-31T11:48:41;9.98;;;6.30;;
55409;SDS011;41279;43.546;16.426;2022-12-31T12:02:37;11.27;;;7.07;;
55409;SDS011;41279;43.546;16.426;2022-12-31T12:05:14;12.00;;;6.70;;
55409;SDS011;41279;43.546;16.426;2022-12-31T12:07:42;16.20;;;7.68;;
55409;SDS011;41279;43.546;16.426;2022-12-31T12:10:16;12.23;;;6.95;;
55409;SDS011;41279;43.546;16.426;2022-12-31T12:12:54;12.55;;;7.53;;
55409;SDS011;41279;43.546;16.426;2022-12-31T12:16:06;13.93;;;7.93;;
55409;SDS011;41279;43.546;16.426;2022-12-31T12:18:15;14.65;;;7.50;;
55409;SDS011;41279;43.546;16.426;2022-12-31T12:20:48;13.50;;;7.53;;
55409;SDS011;41279;43.546;16.426;2022-12-31T12:23:24;15.35;;;8.90;;
55409;SDS011;41279;43.546;16.426;2022-12-31T12:25:50;14.02;;;9.02;;
55409;SDS011;41279;43.546;16.426;2022-12-31T12:30:43;17.80;;;9.20;;
55409;SDS011;41279;43.546;16.426;2022-12-31T12:33:39;18.25;;;10.90;;
55409;SDS011;41279;43.546;16.426;2022-12-31T12:36:09;26.13;;;13.55;;
55409;SDS011;41279;43.546;16.426;2022-12-31T12:38:38;24.17;;;12.40;;
55409;SDS011;41279;43.546;16.426;2022-12-31T12:41:05;26.65;;;14.20;;
55409;SDS011;41279;43.546;16.426;2022-12-31T12:43:35;24.17;;;13.57;;
55409;SDS011;41279;43.546;16.426;2022-12-31T12:46:03;20.83;;;12.25;;
55409;SDS011;41279;43.546;16.426;2022-12-31T12:48:36;21.15;;;11.05;;
55409;SDS011;41279;43.546;16.426;2022-12-31T12:51:09;16.23;;;10.17;;
55409;SDS011;41279;43.546;16.426;2022-12-31T12:53:44;20.73;;;10.52;;
55409;SDS011;41279;43.546;16.426;2022-12-31T13:11:29;20.40;;;10.48;;
55409;SDS011;41279;43.546;16.426;2022-12-31T13:14:24;13.55;;;8.30;;
55409;SDS011;41279;43.546;16.426;2022-12-31T13:16:46;15.02;;;7.45;;
55409;SDS011;41279;43.546;16.426;2022-12-31T13:19:18;12.32;;;7.20;;
55409;SDS011;41279;43.546;16.426;2022-12-31T13:24:47;16.02;;;10.05;;
55409;SDS011;41279;43.546;16.426;2022-12-31T13:27:27;11.52;;;7.78;;
55409;SDS011;41279;43.546;16.426;2022-12-31T13:30:03;13.27;;;6.85;;
55409;SDS011;41279;43.546;16.426;2022-12-31T13:32:39;11.98;;;7.40;;
55409;SDS011;41279;43.546;16.426;2022-12-31T13:37:46;21.55;;;13.18;;
55409;SDS011;41279;43.546;16.426;2022-12-31T13:40:20;17.27;;;12.50;;
55409;SDS011;41279;43.546;16.426;2022-12-31T13:42:52;18.45;;;11.20;;
55409;SDS011;41279;43.546;16.426;2022-12-31T13:45:23;20.20;;;11.95;;
55409;SDS011;41279;43.546;16.426;2022-12-31T13:47:55;24.05;;;14.27;;
55409;SDS011;41279;43.546;16.426;2022-12-31T13:50:36;30.67;;;18.88;;
55409;SDS011;41279;43.546;16.426;2022-12-31T13:53:13;83.65;;;49.88;;
55409;SDS011;41279;43.546;16.426;2022-12-31T13:55:45;53.15;;;29.73;;
55409;SDS011;41279;43.546;16.426;2022-12-31T13:58:34;48.42;;;28.63;;
55409;SDS011;41279;43.546;16.426;2022-12-31T14:01:17;25.08;;;15.63;;
55409;SDS011;41279;43.546;16.426;2022-12-31T14:09:08;19.27;;;10.65;;
55409;SDS011;41279;43.546;16.426;2022-12-31T14:11:49;14.93;;;7.82;;
55409;SDS011;41279;43.546;16.426;2022-12-31T14:24:57;11.50;;;6.70;;
55409;SDS011;41279;43.546;16.426;2022-12-31T14:27:28;11.32;;;6.65;;
55409;SDS011;41279;43.546;16.426;2022-12-31T14:29:59;15.15;;;8.43;;
55409;SDS011;41279;43.546;16.426;2022-12-31T14:37:49;25.98;;;15.80;;
55409;SDS011;41279;43.546;16.426;2022-12-31T14:40:51;19.95;;;11.73;;
55409;SDS011;41279;43.546;16.426;2022-12-31T14:46:42;23.02;;;12.77;;
55409;SDS011;41279;43.546;16.426;2022-12-31T14:54:40;50.10;;;26.38;;
55409;SDS011;41279;43.546;16.426;2022-12-31T14:59:49;81.28;;;38.65;;
55409;SDS011;41279;43.546;16.426;2022-12-31T15:02:26;82.32;;;40.25;;
55409;SDS011;41279;43.546;16.426;2022-12-31T15:05:03;42.75;;;24.17;;
55409;SDS011;41279;43.546;16.426;2022-12-31T15:08:22;57.03;;;32.55;;
55409;SDS011;41279;43.546;16.426;2022-12-31T15:24:21;32.72;;;17.52;;
55409;SDS011;41279;43.546;16.426;2022-12-31T15:26:53;34.63;;;19.25;;
55409;SDS011;41279;43.546;16.426;2022-12-31T15:29:43;36.85;;;18.85;;
55409;SDS011;41279;43.546;16.426;2022-12-31T15:32:50;45.00;;;24.98;;
55409;SDS011;41279;43.546;16.426;2022-12-31T15:37:44;47.67;;;26.33;;
55409;SDS011;41279;43.546;16.426;2022-12-31T15:40:22;50.15;;;28.50;;
55409;SDS011;41279;43.546;16.426;2022-12-31T15:42:53;46.70;;;26.75;;
55409;SDS011;41279;43.546;16.426;2022-12-31T15:45:26;53.42;;;29.95;;
55409;SDS011;41279;43.546;16.426;2022-12-31T15:47:57;38.35;;;23.33;;
55409;SDS011;41279;43.546;16.426;2022-12-31T15:50:25;36.08;;;23.42;;
55409;SDS011;41279;43.546;16.426;2022-12-31T15:52:56;34.67;;;20.75;;
55409;SDS011;41279;43.546;16.426;2022-12-31T15:55:26;44.70;;;26.42;;
55409;SDS011;41279;43.546;16.426;2022-12-31T15:58:02;59.88;;;39.33;;
55409;SDS011;41279;43.546;16.426;2022-12-31T16:00:45;37.45;;;22.35;;
55409;SDS011;41279;43.546;16.426;2022-12-31T16:03:23;59.95;;;33.72;;
55409;SDS011;41279;43.546;16.426;2022-12-31T16:05:51;52.03;;;26.90;;
55409;SDS011;41279;43.546;16.426;2022-12-31T16:08:22;52.08;;;27.50;;
55409;SDS011;41279;43.546;16.426;2022-12-31T16:10:52;73.28;;;39.55;;
55409;SDS011;41279;43.546;16.426;2022-12-31T16:13:22;78.40;;;42.15;;
55409;SDS011;41279;43.546;16.426;2022-12-31T16:15:54;109.68;;;54.42;;
55409;SDS011;41279;43.546;16.426;2022-12-31T16:18:24;571.17;;;348.77;;
55409;SDS011;41279;43.546;16.426;2022-12-31T16:20:49;321.15;;;191.60;;
55409;SDS011;41279;43.546;16.426;2022-12-31T16:23:18;129.00;;;68.03;;
55409;SDS011;41279;43.546;16.426;2022-12-31T16:25:47;84.93;;;49.20;;
55409;SDS011;41279;43.546;16.426;2022-12-31T16:28:21;66.95;;;38.78;;
55409;SDS011;41279;43.546;16.426;2022-12-31T16:30:56;48.30;;;30.25;;
55409;SDS011;41279;43.546;16.426;2022-12-31T16:33:25;59.65;;;36.85;;
55409;SDS011;41279;43.546;16.426;2022-12-31T16:35:54;46.67;;;31.10;;
55409;SDS011;41279;43.546;16.426;2022-12-31T16:38:21;55.70;;;34.75;;
55409;SDS011;41279;43.546;16.426;2022-12-31T16:43:26;61.67;;;39.60;;
55409;SDS011;41279;43.546;16.426;2022-12-31T16:45:53;45.53;;;29.30;;
55409;SDS011;41279;43.546;16.426;2022-12-31T16:48:21;46.58;;;30.27;;
55409;SDS011;41279;43.546;16.426;2022-12-31T16:50:47;42.78;;;26.95;;
55409;SDS011;41279;43.546;16.426;2022-12-31T16:53:15;75.10;;;40.42;;
55409;SDS011;41279;43.546;16.426;2022-12-31T16:55:43;64.65;;;37.50;;
55409;SDS011;41279;43.546;16.426;2022-12-31T16:58:22;72.97;;;41.43;;
55409;SDS011;41279;43.546;16.426;2022-12-31T17:00:52;60.63;;;37.03;;
55409;SDS011;41279;43.546;16.426;2022-12-31T17:03:21;59.50;;;36.03;;
55409;SDS011;41279;43.546;16.426;2022-12-31T17:05:52;57.17;;;32.78;;
55409;SDS011;41279;43.546;16.426;2022-12-31T17:08:25;59.55;;;33.72;;
55409;SDS011;41279;43.546;16.426;2022-12-31T17:10:52;45.50;;;28.63;;
55409;SDS011;41279;43.546;16.426;2022-12-31T17:13:28;36.40;;;23.13;;
55409;SDS011;41279;43.546;16.426;2022-12-31T17:15:57;48.00;;;27.65;;
55409;SDS011;41279;43.546;16.426;2022-12-31T17:18:24;28.20;;;15.95;;
55409;SDS011;41279;43.546;16.426;2022-12-31T17:20:53;28.38;;;15.80;;
55409;SDS011;41279;43.546;16.426;2022-12-31T17:23:25;23.88;;;13.35;;
55409;SDS011;41279;43.546;16.426;2022-12-31T17:25:59;27.55;;;14.32;;
55409;SDS011;41279;43.546;16.426;2022-12-31T17:31:24;38.50;;;21.13;;
55409;SDS011;41279;43.546;16.426;2022-12-31T17:36:36;33.08;;;15.73;;
55409;SDS011;41279;43.546;16.426;2022-12-31T17:39:15;33.75;;;19.15;;
55409;SDS011;41279;43.546;16.426;2022-12-31T17:41:43;34.38;;;21.05;;
55409;SDS011;41279;43.546;16.426;2022-12-31T17:44:14;44.50;;;26.83;;
55409;SDS011;41279;43.546;16.426;2022-12-31T17:46:43;41.08;;;27.30;;
55409;SDS011;41279;43.546;16.426;2022-12-31T17:49:09;38.58;;;23.40;;
55409;SDS011;41279;43.546;16.426;2022-12-31T17:51:37;36.50;;;23.60;;
55409;SDS011;41279;43.546;16.426;2022-12-31T17:54:12;40.38;;;25.17;;
55409;SDS011;41279;43.546;16.426;2022-12-31T17:56:42;50.80;;;32.45;;
55409;SDS011;41279;43.546;16.426;2022-12-31T17:59:11;62.65;;;38.83;;
55409;SDS011;41279;43.546;16.426;2022-12-31T18:01:44;101.75;;;60.67;;
55409;SDS011;41279;43.546;16.426;2022-12-31T18:04:14;112.88;;;66.75;;
55409;SDS011;41279;43.546;16.426;2022-12-31T18:06:41;93.55;;;56.33;;
55409;SDS011;41279;43.546;16.426;2022-12-31T18:09:07;73.32;;;42.92;;
55409;SDS011;41279;43.546;16.426;2022-12-31T18:11:34;54.80;;;33.53;;
55409;SDS011;41279;43.546;16.426;2022-12-31T18:14:01;81.85;;;50.67;;
55409;SDS011;41279;43.546;16.426;2022-12-31T18:16:27;74.15;;;42.25;;
55409;SDS011;41279;43.546;16.426;2022-12-31T18:18:53;90.50;;;49.65;;
55409;SDS011;41279;43.546;16.426;2022-12-31T18:21:26;61.42;;;40.15;;
55409;SDS011;41279;43.546;16.426;2022-12-31T18:23:56;82.40;;;51.38;;
55409;SDS011;41279;43.546;16.426;2022-12-31T18:26:23;78.57;;;45.30;;
55409;SDS011;41279;43.546;16.426;2022-12-31T18:28:49;80.53;;;46.20;;
55409;SDS011;41279;43.546;16.426;2022-12-31T18:31:17;76.13;;;44.20;;
55409;SDS011;41279;43.546;16.426;2022-12-31T18:33:45;76.07;;;43.78;;
55409;SDS011;41279;43.546;16.426;2022-12-31T18:36:14;58.88;;;35.53;;
55409;SDS011;41279;43.546;16.426;2022-12-31T18:38:41;57.63;;;34.85;;
55409;SDS011;41279;43.546;16.426;2022-12-31T18:41:10;67.22;;;39.22;;
55409;SDS011;41279;43.546;16.426;2022-12-31T18:43:41;58.30;;;36.40;;
55409;SDS011;41279;43.546;16.426;2022-12-31T18:46:17;62.95;;;39.83;;
55409;SDS011;41279;43.546;16.426;2022-12-31T18:48:45;37.90;;;23.13;;
55409;SDS011;41279;43.546;16.426;2022-12-31T18:51:14;43.53;;;29.10;;
55409;SDS011;41279;43.546;16.426;2022-12-31T18:53:41;47.70;;;28.02;;
55409;SDS011;41279;43.546;16.426;2022-12-31T18:56:10;58.10;;;33.15;;
55409;SDS011;41279;43.546;16.426;2022-12-31T18:58:37;59.92;;;35.28;;